ナイロビ の空港の天気 - METARとTAF

ジョモ・ケニヤッタ国際空港 ( HKJK / NBO ) - ケニア ナイロビ
飛行場実況気象(Metar)
観測時間01/21 21:00 EAT (01/21 18:00 UTC)
風向・風速北東 6m/s
視程10km以上
天気現象
少しの雲 雲底高度 700m
気温21℃
湿度43%
気圧1020hPa
METARHKJK 211800Z 04011KT 9999 FEW023 21/08 Q1020
過去の天気等 Google飛行場航空写真 Wunderground天気予報

過去48時間のMETAR

飛行場予報(TAF)
発表時間: 1/21 20:00 EAT (1/21 17:00 UTC)
予報対象時間: 21日21時 EAT ~ 23日3時 EAT
風向・風速北北東 3m/s
視程10km以上
少しの雲 雲底高度 610m
22日3時 EAT ~ 22日9時 EAT に一時的に
視程10km以上
なし
22日11時 EAT ~ 22日14時 EAT に徐々に
風向・風速東北東 5m/s
全天の4割程度の雲 雲底高度 790m
22日15時 EAT ~ 22日21時 EAT に一時的に
風向・風速北東 8m/s
少しの雲 雲底高度 880m
22日23時 EAT ~ 23日2時 EAT に徐々に
少しの雲 雲底高度 580m
TAF HKJK 211700Z 2118/2224 03005KT 9999 FEW020
TEMPO 2200/2206 CAVOK
BECMG 2208/2211 06010KT SCT026
TEMPO 2212/2218 04015KT FEW029
BECMG 2220/2223 FEW019